createdAt,value
2022-09-22T00:01:42.819Z,6.03
2022-09-22T00:04:13.258Z,5.22
2022-09-22T00:06:48.547Z,6.38
2022-09-22T00:09:21.063Z,4.82
2022-09-22T00:11:53.985Z,4.72
2022-09-22T00:14:26.714Z,5.30
2022-09-22T00:17:01.183Z,7.28
2022-09-22T00:19:36.178Z,4.30
2022-09-22T00:22:07.862Z,4.82
2022-09-22T00:24:35.007Z,6.32
2022-09-22T00:27:02.231Z,4.82
2022-09-22T00:29:39.723Z,5.93
2022-09-22T00:32:07.547Z,5.82
2022-09-22T00:34:37.198Z,5.38
2022-09-22T00:37:03.951Z,6.43
2022-09-22T00:39:31.839Z,6.40
2022-09-22T00:42:01.067Z,6.10
2022-09-22T00:44:36.013Z,7.90
2022-09-22T00:47:32.121Z,5.90
2022-09-22T00:50:16.639Z,4.78
2022-09-22T00:52:56.249Z,6.82
2022-09-22T00:55:40.777Z,4.60
2022-09-22T00:58:16.777Z,5.80
2022-09-22T01:00:47.760Z,5.25
2022-09-22T01:03:23.157Z,4.78
2022-09-22T01:05:58.500Z,5.13
2022-09-22T01:08:31.382Z,4.93
2022-09-22T01:10:59.419Z,5.90
2022-09-22T01:13:32.233Z,5.85
2022-09-22T01:16:23.308Z,5.10
2022-09-22T01:19:14.043Z,7.32
2022-09-22T01:21:51.296Z,5.30
2022-09-22T01:24:42.435Z,8.13
2022-09-22T01:27:53.259Z,4.13
2022-09-22T01:30:24.580Z,4.25
2022-09-22T01:33:17.485Z,4.35
2022-09-22T01:36:30.430Z,5.13
2022-09-22T01:39:26.052Z,4.93
2022-09-22T01:42:07.521Z,6.18
2022-09-22T01:44:53.107Z,6.47
2022-09-22T01:47:28.289Z,4.78
2022-09-22T01:50:07.694Z,4.22
2022-09-22T01:52:39.812Z,3.95
2022-09-22T01:55:15.339Z,4.57
2022-09-22T01:57:55.605Z,4.68
2022-09-22T02:00:25.953Z,3.50
2022-09-22T02:03:17.131Z,4.63
2022-09-22T02:06:01.790Z,3.70
2022-09-22T02:09:07.506Z,4.47
2022-09-22T02:11:34.307Z,3.92
2022-09-22T02:14:04.220Z,3.92
2022-09-22T02:16:32.690Z,3.90
2022-09-22T02:19:13.472Z,3.65
2022-09-22T02:21:44.736Z,3.90
2022-09-22T02:24:37.672Z,6.07
2022-09-22T02:27:25.511Z,4.45
2022-09-22T02:30:00.872Z,5.80
2022-09-22T02:32:30.417Z,5.40
2022-09-22T02:34:58.252Z,3.88
2022-09-22T02:38:03.487Z,5.22
2022-09-22T02:40:58.434Z,6.65
2022-09-22T02:43:59.797Z,4.22
2022-09-22T02:46:39.692Z,5.90
2022-09-22T02:49:18.405Z,6.10
2022-09-22T02:51:59.872Z,4.13
2022-09-22T02:54:26.698Z,4.97
2022-09-22T02:56:54.376Z,3.67
2022-09-22T02:59:21.563Z,4.85
2022-09-22T03:01:49.763Z,4.75
2022-09-22T03:04:18.634Z,4.28
2022-09-22T03:06:45.333Z,3.45
2022-09-22T03:09:12.065Z,5.55
2022-09-22T03:11:39.205Z,4.00
2022-09-22T03:14:07.958Z,4.32
2022-09-22T03:16:34.694Z,4.70
2022-09-22T03:19:03.502Z,4.05
2022-09-22T03:21:30.254Z,3.17
2022-09-22T03:23:56.923Z,5.38
2022-09-22T03:26:23.698Z,5.20
2022-09-22T03:28:50.434Z,3.50
2022-09-22T03:31:17.147Z,3.95
2022-09-22T03:33:43.932Z,3.60
2022-09-22T03:36:10.547Z,3.45
2022-09-22T03:38:37.181Z,5.25
2022-09-22T03:41:04.303Z,4.35
2022-09-22T03:43:31.011Z,3.42
2022-09-22T03:46:02.910Z,3.63
2022-09-22T03:48:31.172Z,4.25
2022-09-22T03:51:09.142Z,4.18
2022-09-22T03:53:36.951Z,3.90
2022-09-22T03:56:16.888Z,5.90
2022-09-22T03:58:44.409Z,4.13
2022-09-22T04:01:12.203Z,3.80
2022-09-22T04:03:39.871Z,3.55
2022-09-22T04:06:08.937Z,4.80
2022-09-22T04:08:36.558Z,4.18
2022-09-22T04:11:04.590Z,4.40
2022-09-22T04:13:31.272Z,3.33
2022-09-22T04:15:57.947Z,4.15
2022-09-22T04:18:25.949Z,3.67
2022-09-22T04:20:57.863Z,4.50
2022-09-22T04:23:28.255Z,4.35
2022-09-22T04:25:55.145Z,10.30
2022-09-22T04:28:22.073Z,6.47
2022-09-22T04:30:49.377Z,4.38
2022-09-22T04:33:16.770Z,4.28
2022-09-22T04:35:43.495Z,4.68
2022-09-22T04:38:10.770Z,3.50
2022-09-22T04:40:37.977Z,5.75
2022-09-22T04:43:04.705Z,4.07
2022-09-22T04:45:33.141Z,3.70
2022-09-22T04:48:03.041Z,4.20
2022-09-22T04:50:29.660Z,3.35
2022-09-22T04:52:57.263Z,3.30
2022-09-22T04:55:25.528Z,3.72
2022-09-22T04:57:57.273Z,3.50
2022-09-22T05:00:27.570Z,3.53
2022-09-22T05:02:55.118Z,3.77
2022-09-22T05:05:24.499Z,3.80
2022-09-22T05:07:55.029Z,3.83
2022-09-22T05:10:25.363Z,4.80
2022-09-22T05:12:53.610Z,4.80
2022-09-22T05:15:22.530Z,4.00
2022-09-22T05:17:53.086Z,4.18
2022-09-22T05:20:22.627Z,4.30
2022-09-22T05:22:49.783Z,5.20
2022-09-22T05:25:19.530Z,4.97
2022-09-22T05:27:54.401Z,4.38
2022-09-22T05:30:25.713Z,4.85
2022-09-22T05:32:54.712Z,4.35
2022-09-22T05:35:24.637Z,4.68
2022-09-22T05:37:53.267Z,3.63
2022-09-22T05:40:23.753Z,4.88
2022-09-22T05:42:52.358Z,7.60
2022-09-22T05:45:21.712Z,7.35
2022-09-22T05:47:48.415Z,5.63
2022-09-22T05:50:17.975Z,9.38
2022-09-22T05:52:44.808Z,11.50
2022-09-22T05:55:13.327Z,19.15
2022-09-22T05:57:40.228Z,27.08
2022-09-22T06:00:08.836Z,27.90
2022-09-22T06:02:35.655Z,27.90
2022-09-22T06:05:02.468Z,17.95
2022-09-22T06:07:29.224Z,15.65
2022-09-22T06:09:55.828Z,18.13
2022-09-22T06:12:22.463Z,19.85
2022-09-22T06:14:49.039Z,15.68
2022-09-22T06:17:15.656Z,14.35
2022-09-22T06:19:43.158Z,11.07
2022-09-22T06:22:11.232Z,6.75
2022-09-22T06:24:38.050Z,6.75
2022-09-22T06:27:05.057Z,11.15
2022-09-22T06:29:31.754Z,7.57
2022-09-22T06:31:58.816Z,7.25
2022-09-22T06:34:27.146Z,7.38
2022-09-22T06:36:57.341Z,7.30
2022-09-22T06:39:26.224Z,9.53
2022-09-22T06:41:56.624Z,7.25
2022-09-22T06:44:23.364Z,6.93
2022-09-22T06:46:49.951Z,6.75
2022-09-22T06:49:16.559Z,5.25
2022-09-22T06:51:47.424Z,8.75
2022-09-22T06:54:14.470Z,5.55
2022-09-22T06:56:42.738Z,5.32
2022-09-22T06:59:12.810Z,6.30
2022-09-22T07:01:42.095Z,5.70
2022-09-22T07:04:10.540Z,5.10
2022-09-22T07:06:39.656Z,5.43
2022-09-22T07:09:11.447Z,9.07
2022-09-22T07:11:41.199Z,8.55
2022-09-22T07:14:08.854Z,8.02
2022-09-22T07:16:36.448Z,7.35
2022-09-22T07:19:05.803Z,5.68
2022-09-22T07:21:36.442Z,8.43
2022-09-22T07:24:05.611Z,8.75
2022-09-22T07:26:38.496Z,8.68
2022-09-22T07:29:11.817Z,6.10
2022-09-22T07:31:40.474Z,7.43
2022-09-22T07:34:07.264Z,7.20
2022-09-22T07:36:36.906Z,8.02
2022-09-22T07:39:11.120Z,9.57
2022-09-22T07:41:46.859Z,8.82
2022-09-22T07:44:33.893Z,10.32
2022-09-22T07:47:02.371Z,11.02
2022-09-22T07:49:29.851Z,7.72
2022-09-22T07:51:59.117Z,7.20
2022-09-22T07:54:27.646Z,8.25
2022-09-22T07:57:02.250Z,7.30
2022-09-22T07:59:28.957Z,7.72
2022-09-22T08:01:55.976Z,7.95
2022-09-22T08:04:23.811Z,6.70
2022-09-22T08:06:55.329Z,10.88
2022-09-22T08:09:26.316Z,7.20
2022-09-22T08:11:53.636Z,7.40
2022-09-22T08:14:23.465Z,8.25
2022-09-22T08:16:51.622Z,8.10
2022-09-22T08:19:18.673Z,8.65
2022-09-22T08:21:49.981Z,6.55
2022-09-22T08:24:22.856Z,9.05
2022-09-22T08:26:52.655Z,6.38
2022-09-22T08:29:20.568Z,7.45
2022-09-22T08:31:48.101Z,9.07
2022-09-22T08:34:18.526Z,8.18
2022-09-22T08:36:47.213Z,7.57
2022-09-22T08:39:15.634Z,9.73
2022-09-22T08:41:48.070Z,8.68
2022-09-22T08:44:23.834Z,6.85
2022-09-22T08:46:53.602Z,8.75
2022-09-22T08:49:54.054Z,11.45
2022-09-22T08:52:40.028Z,11.20
2022-09-22T08:55:24.581Z,5.90
2022-09-22T08:58:09.087Z,5.70
2022-09-22T09:01:20.733Z,7.68
2022-09-22T09:04:27.220Z,8.02
2022-09-22T09:07:15.546Z,6.78
2022-09-22T09:10:20.438Z,6.53
2022-09-22T09:13:08.570Z,7.65
2022-09-22T09:15:54.142Z,8.50
2022-09-22T09:18:32.246Z,6.78
2022-09-22T09:21:05.519Z,6.10
2022-09-22T09:26:35.456Z,5.32
2022-09-22T09:29:08.371Z,12.93
2022-09-22T09:31:53.280Z,6.20
2022-09-22T09:34:26.813Z,6.55
2022-09-22T09:37:07.699Z,5.47
2022-09-22T09:39:39.005Z,5.57
2022-09-22T09:42:20.120Z,5.43
2022-09-22T09:44:53.665Z,7.32
2022-09-22T09:47:43.086Z,5.72
2022-09-22T09:50:13.408Z,5.22
2022-09-22T09:52:40.169Z,4.82
2022-09-22T09:55:27.262Z,4.88
2022-09-22T09:58:06.643Z,4.50
2022-09-22T10:00:52.747Z,6.15
2022-09-22T10:03:41.094Z,4.00
2022-09-22T10:06:10.975Z,4.00
2022-09-22T10:08:49.221Z,5.25
2022-09-22T10:11:15.969Z,4.47
2022-09-22T10:13:44.218Z,4.05
2022-09-22T10:16:26.965Z,5.80
2022-09-22T10:18:59.472Z,5.60
2022-09-22T10:21:28.113Z,4.85
2022-09-22T10:24:00.617Z,3.05
2022-09-22T10:26:29.322Z,4.82
2022-09-22T10:29:18.485Z,2.60
2022-09-22T10:32:17.034Z,5.40
2022-09-22T10:34:51.741Z,2.70
2022-09-22T10:37:27.736Z,5.18
2022-09-22T10:40:01.821Z,2.40
2022-09-22T10:42:45.376Z,3.05
2022-09-22T10:45:15.595Z,3.17
2022-09-22T10:48:08.955Z,4.97
2022-09-22T10:50:50.221Z,2.85
2022-09-22T10:53:32.322Z,4.70
2022-09-22T10:56:06.364Z,2.63
2022-09-22T10:59:16.110Z,1.90
2022-09-22T11:02:19.080Z,4.47
2022-09-22T11:06:03.840Z,3.13
2022-09-22T11:09:09.042Z,3.50
2022-09-22T11:12:22.432Z,2.70
2022-09-22T11:15:34.028Z,1.85
2022-09-22T11:18:23.077Z,2.03
2022-09-22T11:21:08.750Z,2.45
2022-09-22T11:23:59.184Z,3.35
2022-09-22T11:26:48.097Z,2.47
2022-09-22T11:29:59.291Z,2.40
2022-09-22T11:35:44.161Z,2.33
2022-09-22T11:38:53.972Z,3.58
2022-09-22T11:41:54.779Z,5.05
2022-09-22T11:44:28.797Z,1.95
2022-09-22T11:47:26.103Z,3.15
2022-09-22T11:50:26.198Z,2.55
2022-09-22T11:53:27.638Z,4.85
2022-09-22T11:56:42.311Z,3.30
2022-09-22T11:59:52.987Z,2.13
2022-09-22T12:02:41.190Z,2.47
2022-09-22T12:05:22.884Z,2.35
2022-09-22T12:07:59.163Z,2.80
2022-09-22T12:10:42.623Z,1.92
2022-09-22T12:13:28.338Z,4.13
2022-09-22T12:16:10.536Z,3.15
2022-09-22T12:18:53.141Z,3.75
2022-09-22T12:21:37.923Z,2.85
2022-09-22T12:24:09.987Z,2.50
2022-09-22T12:26:41.106Z,2.30
2022-09-22T12:29:27.196Z,2.70
2022-09-22T12:31:58.897Z,3.38
2022-09-22T12:34:39.864Z,3.05
2022-09-22T12:39:49.913Z,4.93
2022-09-22T12:42:36.018Z,3.40
2022-09-22T12:45:41.063Z,2.13
2022-09-22T12:48:25.657Z,4.63
2022-09-22T12:51:31.306Z,2.83
2022-09-22T12:54:22.412Z,2.33
2022-09-22T12:57:10.675Z,1.90
2022-09-22T12:59:40.149Z,1.73
2022-09-22T13:02:16.012Z,1.85
2022-09-22T13:05:04.320Z,1.55
2022-09-22T13:07:44.363Z,1.70
2022-09-22T13:10:23.240Z,4.53
2022-09-22T13:13:05.651Z,1.55
2022-09-22T13:15:47.217Z,2.97
2022-09-22T13:18:35.704Z,1.52
2022-09-22T13:21:13.271Z,1.77
2022-09-22T13:24:00.205Z,1.83
2022-09-22T13:26:33.457Z,1.55
2022-09-22T13:29:19.166Z,2.10
2022-09-22T13:31:48.461Z,1.52
2022-09-22T13:34:34.335Z,2.90
2022-09-22T13:37:13.926Z,1.30
2022-09-22T13:39:49.865Z,1.00
2022-09-22T13:42:32.352Z,1.27
2022-09-22T13:45:07.767Z,1.20
2022-09-22T13:47:35.922Z,2.47
2022-09-22T13:50:08.562Z,1.20
2022-09-22T13:52:39.337Z,0.90
2022-09-22T13:55:14.950Z,2.15
2022-09-22T13:57:42.858Z,1.00
2022-09-22T14:00:27.009Z,1.50
2022-09-22T14:02:57.779Z,0.82
2022-09-22T14:05:35.102Z,1.30
2022-09-22T14:08:13.019Z,2.28
2022-09-22T14:10:43.425Z,1.10
2022-09-22T14:13:59.163Z,2.00
2022-09-22T14:16:42.566Z,0.77
2022-09-22T14:19:23.386Z,1.38
2022-09-22T14:21:59.884Z,0.80
2022-09-22T14:24:34.755Z,0.85
2022-09-22T14:27:07.311Z,1.17
2022-09-22T14:29:40.883Z,0.80
2022-09-22T14:32:22.666Z,1.20
2022-09-22T14:34:56.815Z,1.77
2022-09-22T14:37:36.440Z,1.00
2022-09-22T14:40:14.331Z,1.00
2022-09-22T14:42:41.453Z,1.48
2022-09-22T14:45:08.434Z,1.50
2022-09-22T14:47:42.805Z,1.65
2022-09-22T14:50:27.720Z,1.88
2022-09-22T14:53:13.779Z,1.40
2022-09-22T14:55:50.431Z,1.65
2022-09-22T14:58:27.257Z,0.88
2022-09-22T15:01:22.815Z,1.60
2022-09-22T15:04:17.251Z,1.15
2022-09-22T15:06:48.881Z,2.58
2022-09-22T15:09:29.273Z,1.20
2022-09-22T15:12:02.110Z,1.33
2022-09-22T15:14:35.133Z,0.93
2022-09-22T15:17:23.505Z,1.20
2022-09-22T15:19:57.099Z,1.23
2022-09-22T15:22:27.556Z,1.02
2022-09-22T15:24:57.722Z,1.10
2022-09-22T15:27:27.163Z,1.20
2022-09-22T15:29:56.055Z,1.10
2022-09-22T15:32:22.801Z,1.20
2022-09-22T15:34:50.439Z,1.50
2022-09-22T15:37:22.327Z,1.23
2022-09-22T15:39:49.562Z,1.67
2022-09-22T15:42:16.356Z,1.60
2022-09-22T15:44:44.150Z,1.13
2022-09-22T15:47:17.053Z,2.53
2022-09-22T15:49:45.081Z,1.20
2022-09-22T15:52:11.938Z,1.02
2022-09-22T15:54:38.618Z,1.00
2022-09-22T15:57:09.953Z,1.25
2022-09-22T15:59:36.948Z,1.08
2022-09-22T16:02:11.234Z,1.80
2022-09-22T16:04:37.923Z,2.08
2022-09-22T16:07:12.413Z,1.52
2022-09-22T16:09:39.283Z,1.67
2022-09-22T16:12:10.900Z,1.20
2022-09-22T16:14:39.706Z,1.30
2022-09-22T16:17:07.747Z,1.33
2022-09-22T16:19:35.182Z,1.30
2022-09-22T16:22:02.735Z,1.95
2022-09-22T16:24:30.150Z,1.67
2022-09-22T16:26:56.832Z,2.00
2022-09-22T16:29:25.046Z,1.27
2022-09-22T16:31:51.791Z,2.30
2022-09-22T16:34:21.282Z,4.40
2022-09-22T16:36:47.927Z,3.65
2022-09-22T16:39:14.531Z,4.90
2022-09-22T16:41:46.670Z,4.55
2022-09-22T16:44:13.764Z,6.90
2022-09-22T16:46:40.365Z,6.72
2022-09-22T16:49:12.824Z,10.95
2022-09-22T16:51:48.300Z,9.27
2022-09-22T16:54:16.330Z,4.43
2022-09-22T16:56:51.018Z,4.45
2022-09-22T16:59:21.529Z,3.45
2022-09-22T17:01:49.965Z,1.90
2022-09-22T17:04:21.191Z,1.90
2022-09-22T17:06:49.894Z,1.77
2022-09-22T17:09:17.524Z,1.98
2022-09-22T17:11:48.565Z,1.95
2022-09-22T17:14:22.037Z,1.95
2022-09-22T17:16:56.504Z,2.05
2022-09-22T17:19:26.635Z,2.10
2022-09-22T17:21:56.120Z,2.00
2022-09-22T17:24:25.614Z,2.03
2022-09-22T17:26:56.400Z,2.25
2022-09-22T17:29:26.720Z,1.90
2022-09-22T17:31:57.395Z,2.22
2022-09-22T17:34:28.444Z,2.10
2022-09-22T17:36:56.475Z,2.30
2022-09-22T17:39:24.140Z,1.63
2022-09-22T17:41:51.218Z,1.45
2022-09-22T17:44:21.453Z,1.73
2022-09-22T17:47:09.680Z,2.08
2022-09-22T17:49:56.622Z,1.73
2022-09-22T17:52:33.113Z,1.73
2022-09-22T17:55:08.024Z,1.80
2022-09-22T17:57:41.813Z,2.20
2022-09-22T18:00:20.898Z,2.90
2022-09-22T18:02:49.913Z,2.28
2022-09-22T18:05:22.155Z,5.35
2022-09-22T18:07:53.535Z,3.95
2022-09-22T18:10:20.835Z,3.85
2022-09-22T18:12:47.463Z,3.40
2022-09-22T18:15:15.018Z,3.75
2022-09-22T18:17:43.529Z,4.20
2022-09-22T18:20:14.488Z,2.80
2022-09-22T18:25:10.497Z,7.75
2022-09-22T18:27:38.166Z,5.75
2022-09-22T18:30:06.232Z,3.85
2022-09-22T18:32:34.832Z,2.85
2022-09-22T18:35:05.384Z,2.88
2022-09-22T18:37:32.567Z,3.28
2022-09-22T18:40:01.590Z,4.30
2022-09-22T18:42:31.021Z,3.88
2022-09-22T18:44:57.647Z,5.60
2022-09-22T18:47:24.846Z,3.42
2022-09-22T18:49:53.785Z,3.42
2022-09-22T18:52:24.516Z,5.05
2022-09-22T18:57:25.399Z,3.30
2022-09-22T18:59:57.691Z,5.70
2022-09-22T19:02:24.863Z,3.15
2022-09-22T19:04:51.689Z,3.15
2022-09-22T19:07:41.411Z,3.50
2022-09-22T19:10:12.823Z,3.53
2022-09-22T19:12:39.995Z,3.83
2022-09-22T19:15:13.902Z,3.60
2022-09-22T19:17:46.551Z,4.78
2022-09-22T19:20:23.246Z,4.72
2022-09-22T19:22:52.246Z,4.57
2022-09-22T19:25:21.385Z,6.22
2022-09-22T19:27:54.040Z,4.60
2022-09-22T19:30:25.792Z,5.57
2022-09-22T19:32:55.184Z,6.80
2022-09-22T19:35:22.060Z,3.72
2022-09-22T19:37:51.575Z,4.95
2022-09-22T19:40:25.584Z,5.53
2022-09-22T19:42:53.502Z,3.47
2022-09-22T19:45:23.822Z,3.45
2022-09-22T19:47:51.314Z,3.10
2022-09-22T19:50:19.144Z,3.42
2022-09-22T19:52:46.141Z,4.65
2022-09-22T19:55:13.157Z,4.35
2022-09-22T19:57:43.582Z,4.55
2022-09-22T20:00:25.799Z,4.75
2022-09-22T20:03:00.963Z,5.80
2022-09-22T20:05:36.831Z,5.90
2022-09-22T20:08:17.936Z,4.30
2022-09-22T20:10:48.228Z,4.72
2022-09-22T20:13:33.903Z,5.82
2022-09-22T20:16:01.900Z,4.85
2022-09-22T20:18:29.885Z,4.43
2022-09-22T20:20:57.332Z,4.65
2022-09-22T20:23:24.129Z,5.18
2022-09-22T20:25:52.067Z,7.53
2022-09-22T20:28:19.426Z,8.32
2022-09-22T20:30:46.113Z,4.97
2022-09-22T20:33:22.550Z,4.72
2022-09-22T20:35:52.466Z,7.30
2022-09-22T20:38:19.707Z,4.65
2022-09-22T20:40:48.511Z,5.45
2022-09-22T20:43:16.443Z,6.13
2022-09-22T20:45:44.444Z,5.88
2022-09-22T20:48:19.165Z,4.95
2022-09-22T20:50:58.134Z,5.82
2022-09-22T20:53:24.962Z,5.28
2022-09-22T20:56:03.242Z,6.68
2022-09-22T20:58:32.759Z,7.53
2022-09-22T21:01:04.068Z,7.47
2022-09-22T21:06:02.630Z,5.70
2022-09-22T21:08:48.525Z,6.47
2022-09-22T21:11:18.399Z,5.43
2022-09-22T21:13:45.922Z,6.40
2022-09-22T21:16:13.890Z,5.72
2022-09-22T21:18:40.763Z,5.45
2022-09-22T21:21:08.218Z,8.43
2022-09-22T21:23:35.312Z,5.13
2022-09-22T21:26:07.713Z,5.63
2022-09-22T21:28:34.263Z,6.80
2022-09-22T21:31:05.193Z,5.00
2022-09-22T21:33:35.107Z,4.85
2022-09-22T21:36:14.814Z,5.00
2022-09-22T21:38:50.286Z,5.03
2022-09-22T21:41:20.716Z,5.05
2022-09-22T21:43:49.834Z,5.50
2022-09-22T21:46:20.124Z,6.97
2022-09-22T21:48:47.614Z,5.70
2022-09-22T21:51:22.283Z,6.18
2022-09-22T21:53:54.496Z,6.07
2022-09-22T21:56:25.225Z,5.85
2022-09-22T21:58:55.129Z,7.15
2022-09-22T22:01:25.184Z,6.18
2022-09-22T22:03:55.380Z,5.35
2022-09-22T22:06:24.077Z,6.00
2022-09-22T22:09:22.481Z,5.82
2022-09-22T22:11:57.460Z,6.13
2022-09-22T22:14:32.502Z,6.40
2022-09-22T22:17:01.160Z,7.03
2022-09-22T22:19:27.800Z,8.93
2022-09-22T22:21:54.692Z,6.60
2022-09-22T22:24:28.648Z,6.18
2022-09-22T22:27:07.670Z,7.78
2022-09-22T22:29:34.931Z,5.40
2022-09-22T22:32:07.282Z,7.22
2022-09-22T22:34:34.906Z,6.88
2022-09-22T22:37:01.842Z,5.55
2022-09-22T22:39:29.800Z,6.50
2022-09-22T22:41:56.407Z,5.35
2022-09-22T22:44:23.209Z,6.20
2022-09-22T22:46:50.522Z,5.72
2022-09-22T22:49:17.252Z,5.15
2022-09-22T22:51:44.012Z,4.55
2022-09-22T22:54:13.519Z,7.57
2022-09-22T22:56:42.470Z,5.15
2022-09-22T22:59:11.149Z,10.98
2022-09-22T23:01:40.251Z,8.48
2022-09-22T23:04:10.760Z,6.75
2022-09-22T23:06:41.731Z,5.47
2022-09-22T23:09:13.841Z,5.55
2022-09-22T23:11:42.271Z,5.05
2022-09-22T23:14:11.835Z,5.88
2022-09-22T23:16:45.964Z,6.75
2022-09-22T23:19:16.914Z,6.20
2022-09-22T23:21:45.228Z,7.07
2022-09-22T23:24:18.927Z,5.28
2022-09-22T23:26:46.393Z,5.10
2022-09-22T23:29:13.692Z,5.20
2022-09-22T23:31:40.280Z,5.00
2022-09-22T23:34:06.843Z,5.60
2022-09-22T23:36:33.385Z,5.00
2022-09-22T23:39:05.376Z,7.72
2022-09-22T23:41:36.163Z,5.68
2022-09-22T23:44:07.159Z,5.53
2022-09-22T23:49:01.201Z,5.07
2022-09-22T23:51:28.379Z,6.22
2022-09-22T23:53:56.246Z,5.85
2022-09-22T23:56:23.467Z,5.35
2022-09-22T23:58:51.906Z,5.50
